createdAt,value
2022-12-18T03:13:22.313Z,25.58
2022-12-18T04:28:06.870Z,26.38
2022-12-18T04:35:29.850Z,25.88
2022-12-18T04:45:22.395Z,25.83
2022-12-18T04:55:24.881Z,27.35
2022-12-18T05:12:28.313Z,25.27
2022-12-18T05:15:54.374Z,26.08
2022-12-18T05:19:06.010Z,22.27
2022-12-18T05:22:25.163Z,22.15
2022-12-18T05:33:23.604Z,22.60
2022-12-18T05:37:20.437Z,24.48
2022-12-18T05:51:21.757Z,23.10
2022-12-18T06:02:10.003Z,24.60
2022-12-18T06:05:25.692Z,24.42
2022-12-18T06:09:05.475Z,27.48
2022-12-18T06:23:28.817Z,25.92
2022-12-18T06:27:38.560Z,22.70
2022-12-18T06:31:12.734Z,26.73
2022-12-18T06:34:57.596Z,22.45
2022-12-18T06:37:54.920Z,20.65
2022-12-18T06:43:56.851Z,25.23
2022-12-18T06:46:55.592Z,26.48
2022-12-18T06:49:57.675Z,23.52
2022-12-18T06:52:55.540Z,27.63
2022-12-18T06:55:54.695Z,24.35
2022-12-18T06:58:50.007Z,23.00
2022-12-18T07:01:44.522Z,24.08
2022-12-18T07:04:31.968Z,25.83
2022-12-18T07:07:18.994Z,22.17
2022-12-18T07:10:09.301Z,26.33
2022-12-18T07:12:58.380Z,23.88
2022-12-18T07:15:47.765Z,21.75
2022-12-18T07:21:28.263Z,23.52
2022-12-18T07:24:21.703Z,24.48
2022-12-18T07:27:11.462Z,22.25
2022-12-18T07:30:14.271Z,24.25
2022-12-18T07:33:07.377Z,24.83
2022-12-18T07:35:54.316Z,24.50
2022-12-18T07:38:41.653Z,23.48
2022-12-18T07:41:29.915Z,25.02
2022-12-18T07:44:16.902Z,22.02
2022-12-18T07:47:12.153Z,23.33
2022-12-18T07:49:59.247Z,23.88
2022-12-18T07:52:51.396Z,22.95
2022-12-18T07:55:59.889Z,23.90
2022-12-18T07:58:54.035Z,25.58
2022-12-18T08:01:46.432Z,24.27
2022-12-18T08:04:36.803Z,23.92
2022-12-18T08:07:26.713Z,24.90
2022-12-18T08:10:13.944Z,25.45
2022-12-18T08:13:04.851Z,22.33
2022-12-18T08:16:08.053Z,26.58
2022-12-18T08:19:00.979Z,24.02
2022-12-18T08:21:53.398Z,26.98
2022-12-18T08:24:40.339Z,25.05
2022-12-18T08:27:29.718Z,25.67
2022-12-18T08:30:22.800Z,23.58
2022-12-18T08:33:16.300Z,25.55
2022-12-18T08:36:04.923Z,21.40
2022-12-18T08:38:59.380Z,24.73
2022-12-18T08:42:13.959Z,22.38
2022-12-18T08:45:13.268Z,24.42
2022-12-18T08:51:00.022Z,24.08
2022-12-18T08:53:51.113Z,25.30
2022-12-18T08:56:45.196Z,23.05
2022-12-18T08:59:32.305Z,24.13
2022-12-18T09:02:22.210Z,23.80
2022-12-18T09:05:09.461Z,24.70
2022-12-18T09:08:04.791Z,23.30
2022-12-18T09:17:17.695Z,25.90
2022-12-18T09:20:37.769Z,23.38
2022-12-18T09:23:47.689Z,19.85
2022-12-18T09:55:39.302Z,23.30
2022-12-18T12:11:39.052Z,18.77
2022-12-18T13:58:14.306Z,17.05
2022-12-18T14:24:40.392Z,16.10
2022-12-18T14:35:16.446Z,19.85
2022-12-18T14:57:01.457Z,19.42
2022-12-18T15:01:09.141Z,18.50
2022-12-18T15:23:29.877Z,19.02
2022-12-18T15:27:40.030Z,18.98
2022-12-18T15:31:47.193Z,18.70
2022-12-18T15:35:17.009Z,18.80
2022-12-18T15:38:04.630Z,19.20
2022-12-18T15:40:53.930Z,20.48
2022-12-18T15:47:52.587Z,19.27
2022-12-18T15:51:37.137Z,20.05
2022-12-18T15:55:36.149Z,21.10
2022-12-18T17:02:39.980Z,17.15
2022-12-18T17:05:35.685Z,18.92
2022-12-18T17:09:58.024Z,19.33
2022-12-18T17:21:41.875Z,21.67
2022-12-18T17:29:26.233Z,18.27
2022-12-18T17:44:48.620Z,19.65
2022-12-18T17:51:01.064Z,20.90
2022-12-18T17:59:53.161Z,20.40
2022-12-18T22:25:50.545Z,26.63
2022-12-18T22:28:56.222Z,27.15
2022-12-18T22:31:45.275Z,29.95
2022-12-18T22:34:36.833Z,28.05
2022-12-18T22:37:32.701Z,26.35
2022-12-18T22:40:38.357Z,31.95
2022-12-18T22:43:34.719Z,28.65
2022-12-18T22:46:22.021Z,25.38
2022-12-18T22:49:18.713Z,31.05
2022-12-18T22:52:06.711Z,30.48
2022-12-18T22:54:57.240Z,32.33
2022-12-18T22:57:48.800Z,27.35
2022-12-18T23:00:46.310Z,32.65
2022-12-18T23:03:34.360Z,29.98
2022-12-18T23:06:32.237Z,29.70
2022-12-18T23:09:23.680Z,26.13
2022-12-18T23:12:18.412Z,28.40
2022-12-18T23:15:08.372Z,29.10
2022-12-18T23:17:56.620Z,30.25
2022-12-18T23:20:46.107Z,31.08
2022-12-18T23:23:36.007Z,29.08
2022-12-18T23:26:27.200Z,29.65
2022-12-18T23:29:17.872Z,28.02
2022-12-18T23:32:10.776Z,31.40
2022-12-18T23:35:02.969Z,27.42
2022-12-18T23:37:59.491Z,29.15
2022-12-18T23:40:46.668Z,25.98
2022-12-18T23:43:35.389Z,26.90
2022-12-18T23:46:27.452Z,29.27
2022-12-18T23:49:21.068Z,27.00
2022-12-18T23:52:16.691Z,28.70
2022-12-18T23:55:06.252Z,27.77
2022-12-18T23:57:56.115Z,27.77
